createdAt,value
2017-02-14T00:00:58.552Z,0
2017-02-14T00:01:58.587Z,0
2017-02-14T00:02:58.566Z,0
2017-02-14T00:03:58.188Z,0
2017-02-14T00:04:58.683Z,0
2017-02-14T00:05:58.632Z,0
2017-02-14T00:06:58.615Z,0
2017-02-14T00:07:58.610Z,0
2017-02-14T00:08:58.243Z,0
2017-02-14T00:09:58.663Z,0
2017-02-14T00:10:58.647Z,0
2017-02-14T00:11:58.660Z,0
2017-02-14T00:12:58.677Z,0
2017-02-14T00:13:58.685Z,0
2017-02-14T00:14:58.678Z,0
2017-02-14T00:15:58.703Z,0
2017-02-14T00:16:58.734Z,0
2017-02-14T00:17:58.739Z,0
2017-02-14T00:18:58.774Z,0
2017-02-14T00:19:58.744Z,0
2017-02-14T00:20:58.757Z,0
2017-02-14T00:21:58.774Z,0
2017-02-14T00:22:58.774Z,0
2017-02-14T00:23:58.793Z,0
2017-02-14T00:24:58.800Z,0
2017-02-14T00:25:58.812Z,0
2017-02-14T00:26:58.440Z,0
2017-02-14T00:27:58.840Z,0
2017-02-14T00:28:58.867Z,0
2017-02-14T00:29:58.849Z,0
2017-02-14T00:30:58.861Z,0
2017-02-14T00:31:58.892Z,0
2017-02-14T00:32:58.977Z,0
2017-02-14T00:33:58.913Z,0
2017-02-14T00:34:58.970Z,0
2017-02-14T00:35:58.967Z,0
2017-02-14T00:36:58.652Z,0
2017-02-14T00:37:58.975Z,0
2017-02-14T00:38:58.658Z,0
2017-02-14T00:39:58.992Z,0
2017-02-14T00:40:59.001Z,0
2017-02-14T00:41:59.008Z,0
2017-02-14T00:42:59.010Z,0
2017-02-14T00:43:59.017Z,0
2017-02-14T00:44:59.026Z,0
2017-02-14T00:45:59.109Z,0
2017-02-14T00:46:59.025Z,0
2017-02-14T00:47:59.049Z,0
2017-02-14T00:48:59.053Z,0
2017-02-14T00:49:59.071Z,0
2017-02-14T00:50:59.069Z,0
2017-02-14T00:51:59.095Z,0
2017-02-14T00:52:59.101Z,0
2017-02-14T00:53:59.098Z,0
2017-02-14T00:54:58.731Z,0
2017-02-14T00:55:58.714Z,0
2017-02-14T00:56:59.136Z,0
2017-02-14T00:57:59.139Z,0
2017-02-14T00:58:59.168Z,0
2017-02-14T00:59:59.157Z,0
2017-02-14T01:00:59.197Z,0
2017-02-14T01:01:59.208Z,0
2017-02-14T01:02:59.182Z,0
2017-02-14T01:03:59.212Z,0
2017-02-14T01:04:59.221Z,0
2017-02-14T01:05:58.815Z,0
2017-02-14T01:06:58.865Z,0
2017-02-14T01:07:58.853Z,0
2017-02-14T01:08:59.257Z,0
2017-02-14T01:09:59.276Z,0
2017-02-14T01:10:59.288Z,0
2017-02-14T01:11:59.302Z,0
2017-02-14T01:12:59.308Z,0
2017-02-14T01:13:59.303Z,0
2017-02-14T01:14:59.310Z,0
2017-02-14T01:15:59.327Z,0
2017-02-14T01:16:59.329Z,0
2017-02-14T01:17:59.353Z,0
2017-02-14T01:18:59.361Z,0
2017-02-14T01:19:59.405Z,0
2017-02-14T01:20:59.393Z,0
2017-02-14T01:21:59.382Z,0
2017-02-14T01:22:59.001Z,0
2017-02-14T01:23:59.458Z,0
2017-02-14T01:24:59.421Z,0
2017-02-14T01:25:59.419Z,0
2017-02-14T01:26:59.050Z,0
2017-02-14T01:27:59.448Z,0
2017-02-14T01:28:59.457Z,0
2017-02-14T01:29:59.469Z,0
2017-02-14T01:30:59.482Z,0
2017-02-14T01:31:59.485Z,0
2017-02-14T01:32:59.487Z,0
2017-02-14T01:33:59.517Z,0
2017-02-14T01:34:59.517Z,0
2017-02-14T01:35:59.530Z,0
2017-02-14T01:37:02.698Z,0
2017-02-14T01:37:59.609Z,0
2017-02-14T01:38:59.565Z,0
2017-02-14T01:39:59.597Z,0
2017-02-14T01:40:59.603Z,0
2017-02-14T01:41:59.642Z,0
2017-02-14T01:42:59.643Z,0
2017-02-14T01:43:59.625Z,0
2017-02-14T01:44:59.622Z,0
2017-02-14T01:45:59.645Z,0
2017-02-14T01:46:59.661Z,0
2017-02-14T01:47:59.683Z,0
2017-02-14T01:48:59.695Z,0
2017-02-14T01:49:59.722Z,0
2017-02-14T01:50:59.697Z,0
2017-02-14T01:51:59.721Z,0
2017-02-14T01:52:59.729Z,0
2017-02-14T01:53:59.743Z,0
2017-02-14T01:54:59.748Z,0
2017-02-14T01:55:59.757Z,0
2017-02-14T01:56:59.754Z,0
2017-02-14T01:57:59.371Z,0
2017-02-14T01:58:59.782Z,0
2017-02-14T01:59:59.792Z,0
2017-02-14T02:00:59.802Z,0
2017-02-14T02:01:59.827Z,0
2017-02-14T02:02:59.415Z,0
2017-02-14T02:03:59.827Z,0
2017-02-14T02:04:59.869Z,0
2017-02-14T02:05:59.848Z,0
2017-02-14T02:06:59.844Z,0
2017-02-14T02:07:59.851Z,0
2017-02-14T02:08:59.888Z,0
2017-02-14T02:09:59.904Z,0
2017-02-14T02:10:59.909Z,0
2017-02-14T02:11:59.903Z,0
2017-02-14T02:12:59.908Z,0
2017-02-14T02:13:59.933Z,0
2017-02-14T02:14:59.931Z,0
2017-02-14T02:15:59.954Z,0
2017-02-14T02:16:59.976Z,0
2017-02-14T02:17:59.959Z,0
2017-02-14T02:18:59.975Z,0
2017-02-14T02:19:59.983Z,0
2017-02-14T02:21:00.008Z,0
2017-02-14T02:22:00.020Z,0
2017-02-14T02:23:00.004Z,0
2017-02-14T02:24:00.051Z,0
2017-02-14T02:25:00.046Z,0
2017-02-14T02:26:00.038Z,0
2017-02-14T02:27:00.060Z,0
2017-02-14T02:28:00.079Z,0
2017-02-14T02:29:00.094Z,0
2017-02-14T02:30:00.076Z,0
2017-02-14T02:31:00.089Z,0
2017-02-14T02:32:00.102Z,0
2017-02-14T02:33:00.106Z,0
2017-02-14T02:34:00.113Z,0
2017-02-14T02:35:00.141Z,0
2017-02-14T02:36:00.178Z,0
2017-02-14T02:36:59.775Z,0
2017-02-14T02:38:00.161Z,0
2017-02-14T02:39:00.174Z,0
2017-02-14T02:40:00.215Z,0
2017-02-14T02:40:59.771Z,0
2017-02-14T02:42:00.203Z,0
2017-02-14T02:43:00.220Z,0
2017-02-14T02:43:59.836Z,0
2017-02-14T02:45:00.235Z,0
2017-02-14T02:46:00.240Z,0
2017-02-14T02:47:00.246Z,0
2017-02-14T02:48:00.266Z,0
2017-02-14T02:49:00.336Z,0
2017-02-14T02:50:00.271Z,0
2017-02-14T02:51:00.297Z,0
2017-02-14T02:52:00.297Z,0
2017-02-14T02:53:00.313Z,0
2017-02-14T02:54:00.320Z,0
2017-02-14T02:55:00.342Z,0
2017-02-14T02:56:00.338Z,0
2017-02-14T02:57:00.338Z,0
2017-02-14T02:58:00.369Z,0
2017-02-14T02:59:00.376Z,0
2017-02-14T03:00:00.373Z,0
2017-02-14T03:01:00.403Z,0
2017-02-14T03:02:00.383Z,0
2017-02-14T03:03:00.022Z,0
2017-02-14T03:04:00.454Z,0
2017-02-14T03:05:00.428Z,0
2017-02-14T03:06:00.434Z,0
2017-02-14T03:07:00.461Z,0
2017-02-14T03:08:00.450Z,0
2017-02-14T03:09:00.485Z,0
2017-02-14T03:10:00.472Z,0
2017-02-14T03:11:00.461Z,0
2017-02-14T03:12:00.481Z,0
2017-02-14T03:13:00.526Z,0
2017-02-14T03:14:00.518Z,0
2017-02-14T03:15:00.556Z,0
2017-02-14T03:16:00.546Z,0
2017-02-14T03:17:00.563Z,0
2017-02-14T03:18:00.566Z,0
2017-02-14T03:19:00.581Z,0
2017-02-14T03:20:00.576Z,0
2017-02-14T03:21:00.574Z,0
2017-02-14T03:22:00.593Z,0
2017-02-14T03:23:00.614Z,0
2017-02-14T03:24:00.633Z,0
2017-02-14T03:25:00.248Z,0
2017-02-14T03:26:00.650Z,0
2017-02-14T03:27:00.637Z,0
2017-02-14T03:28:00.648Z,0
2017-02-14T03:29:00.656Z,0
2017-02-14T03:30:00.695Z,0
2017-02-14T03:31:00.324Z,0
2017-02-14T03:32:00.324Z,0
2017-02-14T03:33:00.708Z,0
2017-02-14T03:34:00.722Z,0
2017-02-14T03:35:00.733Z,0
2017-02-14T03:36:00.728Z,0
2017-02-14T03:37:00.757Z,0
2017-02-14T03:38:00.794Z,0
2017-02-14T03:39:00.767Z,0
2017-02-14T03:40:00.735Z,0
2017-02-14T03:41:00.775Z,0
2017-02-14T03:42:00.787Z,0
2017-02-14T03:43:00.404Z,0
2017-02-14T03:44:00.804Z,0
2017-02-14T03:45:00.801Z,0
2017-02-14T03:46:00.825Z,0
2017-02-14T03:47:00.807Z,0
2017-02-14T03:48:00.474Z,0
2017-02-14T03:49:00.853Z,0
2017-02-14T03:50:00.873Z,0
2017-02-14T03:51:00.880Z,0
2017-02-14T03:52:00.864Z,0
2017-02-14T03:53:00.897Z,0
2017-02-14T03:54:00.512Z,0
2017-02-14T03:55:00.994Z,0
2017-02-14T03:56:00.989Z,0
2017-02-14T03:57:00.998Z,0
2017-02-14T03:58:01.115Z,0
2017-02-14T03:59:01.019Z,0
2017-02-14T04:00:01.046Z,0
2017-02-14T04:01:01.092Z,0
2017-02-14T04:02:01.135Z,0
2017-02-14T04:03:01.253Z,0
2017-02-14T04:04:01.124Z,0
2017-02-14T04:05:01.142Z,0
2017-02-14T04:06:01.158Z,0
2017-02-14T04:07:01.113Z,0
2017-02-14T04:08:01.136Z,0
2017-02-14T04:09:01.161Z,0
2017-02-14T04:10:01.174Z,0
2017-02-14T04:11:01.190Z,0
2017-02-14T04:12:01.188Z,0
2017-02-14T04:13:01.339Z,0
2017-02-14T04:14:01.186Z,0
2017-02-14T04:15:01.253Z,0
2017-02-14T04:16:01.272Z,0
2017-02-14T04:17:01.309Z,0
2017-02-14T04:18:01.344Z,0
2017-02-14T04:19:01.250Z,0
2017-02-14T04:20:01.273Z,0
2017-02-14T04:21:01.296Z,0
2017-02-14T04:22:01.188Z,0
2017-02-14T04:23:01.176Z,0
2017-02-14T04:24:01.191Z,0
2017-02-14T04:25:01.183Z,0
2017-02-14T04:26:01.192Z,0
2017-02-14T04:27:00.795Z,0
2017-02-14T04:28:01.226Z,0
2017-02-14T04:29:01.254Z,0
2017-02-14T04:30:01.248Z,0
2017-02-14T04:31:01.240Z,0
2017-02-14T04:32:01.252Z,0
2017-02-14T04:33:01.316Z,0
2017-02-14T04:34:01.264Z,0
2017-02-14T04:35:01.313Z,0
2017-02-14T04:36:01.274Z,0
2017-02-14T04:37:01.330Z,0
2017-02-14T04:38:00.917Z,0
2017-02-14T04:39:00.924Z,0
2017-02-14T04:40:00.935Z,0
2017-02-14T04:41:01.339Z,0
2017-02-14T04:42:01.318Z,0
2017-02-14T04:43:01.366Z,0
2017-02-14T04:44:01.386Z,0
2017-02-14T04:45:01.372Z,0
2017-02-14T04:46:00.976Z,0
2017-02-14T04:47:01.385Z,0
2017-02-14T04:48:01.416Z,0
2017-02-14T04:49:01.421Z,0
2017-02-14T04:50:01.416Z,0
2017-02-14T04:51:01.442Z,0
2017-02-14T04:52:01.435Z,0
2017-02-14T04:53:01.462Z,0
2017-02-14T04:54:01.486Z,0
2017-02-14T04:55:01.495Z,0
2017-02-14T04:56:01.134Z,0
2017-02-14T04:57:01.492Z,0
2017-02-14T04:58:01.106Z,0
2017-02-14T04:59:01.516Z,0
2017-02-14T05:00:01.494Z,0
2017-02-14T05:01:01.526Z,0
2017-02-14T05:02:01.543Z,0
2017-02-14T05:03:01.545Z,0
2017-02-14T05:04:01.550Z,0
2017-02-14T05:05:01.576Z,0
2017-02-14T05:06:01.582Z,0
2017-02-14T05:07:01.581Z,0
2017-02-14T05:08:01.575Z,0
2017-02-14T05:09:01.598Z,0
2017-02-14T05:10:01.632Z,0
2017-02-14T05:11:01.669Z,0
2017-02-14T05:12:01.623Z,0
2017-02-14T05:13:01.632Z,0
2017-02-14T05:14:01.658Z,0
2017-02-14T05:15:01.647Z,0
2017-02-14T05:16:01.679Z,0
2017-02-14T05:17:01.676Z,0
2017-02-14T05:18:01.694Z,0
2017-02-14T05:19:01.693Z,0
2017-02-14T05:20:01.708Z,0
2017-02-14T05:21:01.703Z,0
2017-02-14T05:22:01.723Z,0
2017-02-14T05:23:01.765Z,0
2017-02-14T05:24:01.734Z,0
2017-02-14T05:25:01.744Z,0
2017-02-14T05:26:01.756Z,0
2017-02-14T05:27:01.780Z,0
2017-02-14T05:28:01.797Z,0
2017-02-14T05:29:01.881Z,0
2017-02-14T05:30:01.497Z,0
2017-02-14T05:31:01.901Z,0
2017-02-14T05:32:01.919Z,0
2017-02-14T05:33:01.924Z,0
2017-02-14T05:34:01.935Z,0
2017-02-14T05:35:01.932Z,0
2017-02-14T05:36:01.941Z,0
2017-02-14T05:37:01.875Z,0
2017-02-14T05:38:01.859Z,0
2017-02-14T05:39:01.862Z,0
2017-02-14T05:40:01.488Z,0
2017-02-14T05:41:01.929Z,0
2017-02-14T05:42:01.904Z,0
2017-02-14T05:43:01.930Z,0
2017-02-14T05:44:01.934Z,0
2017-02-14T05:45:01.926Z,0
2017-02-14T05:46:01.941Z,0
2017-02-14T05:47:01.551Z,0
2017-02-14T05:48:01.568Z,0
2017-02-14T05:49:01.978Z,0
2017-02-14T05:50:01.582Z,0
2017-02-14T05:51:02.001Z,0
2017-02-14T05:52:01.995Z,0
2017-02-14T05:53:02.003Z,0
2017-02-14T05:54:02.015Z,0
2017-02-14T05:55:02.029Z,0
2017-02-14T05:56:02.043Z,0
2017-02-14T05:57:02.051Z,0
2017-02-14T05:58:02.063Z,0
2017-02-14T05:59:02.069Z,0
2017-02-14T06:00:02.282Z,0
2017-02-14T06:01:02.097Z,0
2017-02-14T06:02:02.114Z,0
2017-02-14T06:03:02.092Z,0
2017-02-14T06:04:02.119Z,0
2017-02-14T06:05:01.738Z,4
2017-02-14T06:06:02.122Z,0
2017-02-14T06:07:02.114Z,0
2017-02-14T06:08:02.167Z,4
2017-02-14T06:09:02.172Z,4
2017-02-14T06:10:02.171Z,4
2017-02-14T06:11:02.174Z,4
2017-02-14T06:12:02.208Z,8
2017-02-14T06:13:02.212Z,4
2017-02-14T06:14:02.202Z,8
2017-02-14T06:15:02.239Z,8
2017-02-14T06:16:02.226Z,12
2017-02-14T06:17:02.229Z,12
2017-02-14T06:18:02.215Z,8
2017-02-14T06:19:02.237Z,16
2017-02-14T06:20:02.245Z,16
2017-02-14T06:21:02.254Z,16
2017-02-14T06:22:02.294Z,16
2017-02-14T06:23:02.282Z,20
2017-02-14T06:24:02.294Z,24
2017-02-14T06:25:02.298Z,24
2017-02-14T06:26:02.318Z,28
2017-02-14T06:27:01.929Z,28
2017-02-14T06:28:02.432Z,32
2017-02-14T06:29:02.424Z,36
2017-02-14T06:30:02.459Z,36
2017-02-14T06:31:02.482Z,40
2017-02-14T06:32:02.476Z,44
2017-02-14T06:33:02.461Z,48
2017-02-14T06:34:02.394Z,52
2017-02-14T06:35:01.997Z,56
2017-02-14T06:36:02.464Z,56
2017-02-14T06:37:02.472Z,56
2017-02-14T06:38:02.476Z,60
2017-02-14T06:39:02.487Z,64
2017-02-14T06:40:02.440Z,72
2017-02-14T06:41:02.472Z,72
2017-02-14T06:42:02.459Z,76
2017-02-14T06:43:02.473Z,80
2017-02-14T06:44:02.482Z,84
2017-02-14T06:45:02.494Z,88
2017-02-14T06:46:02.493Z,92
2017-02-14T06:47:02.120Z,96
2017-02-14T06:48:02.538Z,96
2017-02-14T06:49:02.532Z,104
2017-02-14T06:50:02.641Z,108
2017-02-14T06:51:02.557Z,108
2017-02-14T06:52:02.553Z,112
2017-02-14T06:53:02.569Z,116
2017-02-14T06:54:02.356Z,120
2017-02-14T06:55:02.568Z,124
2017-02-14T06:56:02.688Z,128
2017-02-14T06:57:02.214Z,132
2017-02-14T06:58:02.594Z,136
2017-02-14T06:59:02.630Z,140
2017-02-14T07:00:02.633Z,140
2017-02-14T07:01:02.635Z,140
2017-02-14T07:02:02.640Z,148
2017-02-14T07:03:02.635Z,148
2017-02-14T07:04:02.655Z,152
2017-02-14T07:05:02.680Z,156
2017-02-14T07:06:02.667Z,156
2017-02-14T07:07:02.800Z,164
2017-02-14T07:08:02.799Z,164
2017-02-14T07:09:02.778Z,172
2017-02-14T07:10:02.805Z,172
2017-02-14T07:11:02.460Z,176
2017-02-14T07:12:02.735Z,176
2017-02-14T07:13:02.738Z,180
2017-02-14T07:14:02.748Z,184
2017-02-14T07:15:02.758Z,188
2017-02-14T07:16:02.832Z,188
2017-02-14T07:17:02.786Z,196
2017-02-14T07:18:02.788Z,196
2017-02-14T07:19:02.803Z,196
2017-02-14T07:20:02.824Z,200
2017-02-14T07:21:02.806Z,204
2017-02-14T07:22:02.829Z,208
2017-02-14T07:23:02.828Z,208
2017-02-14T07:24:02.855Z,212
2017-02-14T07:25:02.862Z,216
2017-02-14T07:26:02.858Z,216
2017-02-14T07:27:02.875Z,220
2017-02-14T07:28:02.881Z,224
2017-02-14T07:29:02.907Z,224
2017-02-14T07:30:02.472Z,224
2017-02-14T07:31:02.955Z,228
2017-02-14T07:32:02.915Z,232
2017-02-14T07:33:02.945Z,232
2017-02-14T07:34:02.920Z,236
2017-02-14T07:35:02.964Z,240
2017-02-14T07:36:02.970Z,240
2017-02-14T07:37:02.982Z,244
2017-02-14T07:38:03.082Z,244
2017-02-14T07:39:02.978Z,248
2017-02-14T07:40:03.001Z,252
2017-02-14T07:41:03.010Z,256
2017-02-14T07:42:03.008Z,256
2017-02-14T07:43:03.017Z,260
2017-02-14T07:44:03.014Z,260
2017-02-14T07:45:02.655Z,264
2017-02-14T07:46:03.033Z,268
2017-02-14T07:47:03.064Z,268
2017-02-14T07:48:03.059Z,268
2017-02-14T07:49:03.066Z,268
2017-02-14T07:50:03.078Z,272
2017-02-14T07:51:03.117Z,272
2017-02-14T07:52:03.110Z,276
2017-02-14T07:53:03.118Z,280
2017-02-14T07:54:02.845Z,280
2017-02-14T07:55:03.146Z,280
2017-02-14T07:56:03.141Z,284
2017-02-14T07:57:03.162Z,284
2017-02-14T07:58:03.176Z,284
2017-02-14T07:59:03.159Z,288
2017-02-14T08:00:03.279Z,288
2017-02-14T08:01:03.273Z,288
2017-02-14T08:02:03.195Z,292
2017-02-14T08:03:03.260Z,292
2017-02-14T08:04:03.309Z,292
2017-02-14T08:05:03.332Z,296
2017-02-14T08:06:03.408Z,300
2017-02-14T08:07:03.367Z,300
2017-02-14T08:08:03.404Z,304
2017-02-14T08:09:03.475Z,304
2017-02-14T08:10:03.486Z,304
2017-02-14T08:11:03.404Z,308
2017-02-14T08:12:03.410Z,308
2017-02-14T08:13:03.391Z,312
2017-02-14T08:14:03.415Z,312
2017-02-14T08:15:03.440Z,316
2017-02-14T08:16:03.443Z,316
2017-02-14T08:17:03.449Z,316
2017-02-14T08:18:03.443Z,316
2017-02-14T08:19:03.059Z,324
2017-02-14T08:20:03.467Z,320
2017-02-14T08:21:03.467Z,320
2017-02-14T08:22:03.483Z,324
2017-02-14T08:23:03.467Z,324
2017-02-14T08:24:03.095Z,324
2017-02-14T08:25:03.524Z,328
2017-02-14T08:26:03.433Z,328
2017-02-14T08:27:03.531Z,336
2017-02-14T08:28:03.619Z,332
2017-02-14T08:29:03.145Z,332
2017-02-14T08:30:03.082Z,336
2017-02-14T08:31:03.476Z,336
2017-02-14T08:32:03.088Z,336
2017-02-14T08:33:03.487Z,332
2017-02-14T08:34:03.511Z,336
2017-02-14T08:35:03.496Z,336
2017-02-14T08:36:03.517Z,336
2017-02-14T08:37:03.515Z,340
2017-02-14T08:38:03.544Z,336
2017-02-14T08:39:03.566Z,336
2017-02-14T08:40:03.550Z,336
2017-02-14T08:41:03.553Z,336
2017-02-14T08:42:03.565Z,340
2017-02-14T08:43:03.587Z,344
2017-02-14T08:44:03.591Z,340
2017-02-14T08:45:03.601Z,344
2017-02-14T08:46:03.630Z,344
2017-02-14T08:47:03.220Z,344
2017-02-14T08:48:03.237Z,352
2017-02-14T08:49:03.617Z,352
2017-02-14T08:50:03.648Z,352
2017-02-14T08:51:03.652Z,352
2017-02-14T08:52:03.684Z,356
2017-02-14T08:53:03.685Z,356
2017-02-14T08:54:03.705Z,356
2017-02-14T08:55:03.691Z,352
2017-02-14T08:56:03.702Z,356
2017-02-14T08:57:03.819Z,356
2017-02-14T08:58:03.913Z,364
2017-02-14T08:59:03.818Z,356
2017-02-14T09:00:03.831Z,364
2017-02-14T09:01:03.541Z,364
2017-02-14T09:02:03.559Z,368
2017-02-14T09:03:04.001Z,368
2017-02-14T09:04:03.091Z,372
2017-02-14T09:05:03.097Z,372
2017-02-14T09:06:03.518Z,372
2017-02-14T09:07:03.945Z,376
2017-02-14T09:08:04.013Z,376
2017-02-14T09:09:03.565Z,372
2017-02-14T09:10:03.526Z,376
2017-02-14T09:11:03.941Z,384
2017-02-14T09:12:03.566Z,380
2017-02-14T09:13:03.592Z,388
2017-02-14T09:14:03.933Z,392
2017-02-14T09:15:03.940Z,392
2017-02-14T09:16:03.951Z,392
2017-02-14T09:17:03.989Z,392
2017-02-14T09:18:04.039Z,392
2017-02-14T09:19:03.977Z,396
2017-02-14T09:20:04.040Z,392
2017-02-14T09:21:04.019Z,400
2017-02-14T09:22:03.967Z,400
2017-02-14T09:23:04.041Z,400
2017-02-14T09:24:03.993Z,412
2017-02-14T09:25:03.992Z,412
2017-02-14T09:26:04.013Z,412
2017-02-14T09:27:03.604Z,416
2017-02-14T09:28:04.214Z,412
2017-02-14T09:29:04.055Z,416
2017-02-14T09:30:04.038Z,420
2017-02-14T09:31:04.054Z,420
2017-02-14T09:32:04.060Z,416
2017-02-14T09:33:04.080Z,420
2017-02-14T09:34:04.084Z,424
2017-02-14T09:35:04.104Z,424
2017-02-14T09:36:04.111Z,428
2017-02-14T09:37:04.113Z,432
2017-02-14T09:38:04.119Z,428
2017-02-14T09:39:04.131Z,424
2017-02-14T09:40:04.147Z,424
2017-02-14T09:41:04.147Z,428
2017-02-14T09:42:04.176Z,436
2017-02-14T09:43:04.172Z,432
2017-02-14T09:44:04.175Z,436
2017-02-14T09:45:04.207Z,436
2017-02-14T09:46:04.230Z,436
2017-02-14T09:47:04.242Z,440
2017-02-14T09:48:04.244Z,440
2017-02-14T09:49:04.237Z,440
2017-02-14T09:50:04.243Z,440
2017-02-14T09:51:04.286Z,444
2017-02-14T09:52:04.496Z,448
2017-02-14T09:53:04.294Z,456
2017-02-14T09:54:04.283Z,456
2017-02-14T09:55:04.325Z,456
2017-02-14T09:56:04.331Z,456
2017-02-14T09:57:04.334Z,456
2017-02-14T09:58:04.331Z,464
2017-02-14T09:59:04.343Z,468
2017-02-14T10:00:04.366Z,468
2017-02-14T10:01:04.380Z,472
2017-02-14T10:02:04.374Z,480
2017-02-14T10:03:03.996Z,476
2017-02-14T10:04:04.402Z,472
2017-02-14T10:05:04.425Z,476
2017-02-14T10:06:04.455Z,476
2017-02-14T10:07:04.424Z,476
2017-02-14T10:08:04.450Z,480
2017-02-14T10:09:04.450Z,480
2017-02-14T10:10:04.484Z,488
2017-02-14T10:11:04.529Z,488
2017-02-14T10:12:04.085Z,492
2017-02-14T10:13:04.094Z,496
2017-02-14T10:14:04.492Z,496
2017-02-14T10:15:04.519Z,500
2017-02-14T10:16:04.534Z,508
2017-02-14T10:17:04.139Z,512
2017-02-14T10:18:04.553Z,512
2017-02-14T10:19:04.579Z,520
2017-02-14T10:20:04.570Z,528
2017-02-14T10:21:04.572Z,536
2017-02-14T10:22:04.593Z,540
2017-02-14T10:23:04.608Z,540
2017-02-14T10:24:04.608Z,544
2017-02-14T10:25:04.660Z,552
2017-02-14T10:26:04.623Z,556
2017-02-14T10:27:04.654Z,556
2017-02-14T10:28:04.651Z,560
2017-02-14T10:29:04.294Z,568
2017-02-14T10:30:04.677Z,564
2017-02-14T10:31:04.693Z,572
2017-02-14T10:32:04.719Z,576
2017-02-14T10:33:04.718Z,580
2017-02-14T10:34:04.713Z,588
2017-02-14T10:35:04.737Z,596
2017-02-14T10:36:04.736Z,600
2017-02-14T10:37:04.796Z,604
2017-02-14T10:38:04.775Z,604
2017-02-14T10:39:04.782Z,600
2017-02-14T10:40:04.810Z,596
2017-02-14T10:41:04.818Z,596
2017-02-14T10:42:04.929Z,596
2017-02-14T10:43:04.510Z,600
2017-02-14T10:44:04.928Z,604
2017-02-14T10:45:04.978Z,604
2017-02-14T10:46:04.890Z,604
2017-02-14T10:47:04.900Z,608
2017-02-14T10:48:04.989Z,600
2017-02-14T10:49:04.905Z,596
2017-02-14T10:50:04.896Z,600
2017-02-14T10:51:04.888Z,600
2017-02-14T10:52:04.956Z,596
2017-02-14T10:53:05.022Z,596
2017-02-14T10:54:04.963Z,596
2017-02-14T10:55:04.935Z,596
2017-02-14T10:56:04.576Z,604
2017-02-14T10:57:04.990Z,608
2017-02-14T10:58:04.976Z,612
2017-02-14T10:59:05.029Z,616
2017-02-14T11:00:05.026Z,624
2017-02-14T11:01:05.111Z,628
2017-02-14T11:02:05.052Z,628
2017-02-14T11:03:05.042Z,628
2017-02-14T11:04:05.075Z,636
2017-02-14T11:05:05.048Z,640
2017-02-14T11:06:04.674Z,632
2017-02-14T11:07:05.115Z,640
2017-02-14T11:08:05.142Z,644
2017-02-14T11:09:05.130Z,644
2017-02-14T11:10:04.736Z,644
2017-02-14T11:11:05.212Z,648
2017-02-14T11:12:05.298Z,652
2017-02-14T11:13:05.224Z,652
2017-02-14T11:14:05.238Z,660
2017-02-14T11:15:04.832Z,664
2017-02-14T11:16:04.823Z,668
2017-02-14T11:17:05.257Z,668
2017-02-14T11:18:05.205Z,676
2017-02-14T11:19:05.232Z,680
2017-02-14T11:20:05.274Z,680
2017-02-14T11:21:05.263Z,684
2017-02-14T11:22:05.283Z,688
2017-02-14T11:23:05.315Z,696
2017-02-14T11:24:05.301Z,696
2017-02-14T11:25:05.335Z,704
2017-02-14T11:26:04.913Z,700
2017-02-14T11:27:05.338Z,700
2017-02-14T11:28:05.339Z,696
2017-02-14T11:29:05.359Z,696
2017-02-14T11:30:04.990Z,700
2017-02-14T11:31:05.406Z,700
2017-02-14T11:32:05.432Z,708
2017-02-14T11:33:05.403Z,704
2017-02-14T11:34:05.416Z,716
2017-02-14T11:35:05.056Z,716
2017-02-14T11:36:05.453Z,716
2017-02-14T11:37:05.056Z,708
2017-02-14T11:38:05.668Z,716
2017-02-14T11:39:05.616Z,724
2017-02-14T11:40:05.234Z,724
2017-02-14T11:41:05.276Z,724
2017-02-14T11:42:05.527Z,724
2017-02-14T11:43:05.543Z,728
2017-02-14T11:44:05.536Z,732
2017-02-14T11:45:05.174Z,728
2017-02-14T11:46:05.629Z,732
2017-02-14T11:47:05.648Z,736
2017-02-14T11:48:05.596Z,724
2017-02-14T11:49:05.291Z,724
2017-02-14T11:50:04.837Z,724
2017-02-14T11:51:05.670Z,732
2017-02-14T11:52:05.269Z,724
2017-02-14T11:53:05.660Z,720
2017-02-14T11:54:05.686Z,716
2017-02-14T11:55:05.699Z,716
2017-02-14T11:56:05.327Z,728
2017-02-14T11:57:05.718Z,732
2017-02-14T11:58:05.738Z,728
2017-02-14T11:59:05.739Z,732
2017-02-14T12:00:05.371Z,732
2017-02-14T12:01:05.758Z,728
2017-02-14T12:02:05.914Z,724
2017-02-14T12:03:05.923Z,720
2017-02-14T12:04:05.827Z,720
2017-02-14T12:05:05.431Z,712
2017-02-14T12:06:05.828Z,704
2017-02-14T12:07:05.846Z,696
2017-02-14T12:08:05.513Z,692
2017-02-14T12:09:05.907Z,692
2017-02-14T12:10:05.491Z,692
2017-02-14T12:11:05.901Z,688
2017-02-14T12:12:05.907Z,692
2017-02-14T12:13:05.939Z,684
2017-02-14T12:14:05.945Z,672
2017-02-14T12:15:05.959Z,668
2017-02-14T12:16:05.579Z,668
2017-02-14T12:17:05.977Z,664
2017-02-14T12:18:06.012Z,668
2017-02-14T12:19:06.006Z,668
2017-02-14T12:20:06.028Z,668
2017-02-14T12:21:06.071Z,672
2017-02-14T12:22:06.184Z,672
2017-02-14T12:23:06.047Z,668
2017-02-14T12:24:06.071Z,660
2017-02-14T12:25:05.754Z,664
2017-02-14T12:26:06.110Z,660
2017-02-14T12:27:05.335Z,652
2017-02-14T12:28:06.129Z,648
2017-02-14T12:29:06.140Z,644
2017-02-14T12:30:06.172Z,636
2017-02-14T12:31:06.157Z,632
2017-02-14T12:32:06.194Z,640
2017-02-14T12:33:06.188Z,640
2017-02-14T12:34:05.831Z,636
2017-02-14T12:35:05.828Z,628
2017-02-14T12:36:06.257Z,624
2017-02-14T12:37:06.258Z,620
2017-02-14T12:38:06.254Z,620
2017-02-14T12:39:06.289Z,620
2017-02-14T12:40:06.283Z,624
2017-02-14T12:41:06.306Z,620
2017-02-14T12:42:05.904Z,616
2017-02-14T12:43:06.333Z,612
2017-02-14T12:44:06.447Z,612
2017-02-14T12:45:06.501Z,616
2017-02-14T12:46:06.121Z,608
2017-02-14T12:47:06.509Z,608
2017-02-14T12:48:06.107Z,604
2017-02-14T12:49:06.515Z,604
2017-02-14T12:50:06.508Z,604
2017-02-14T12:51:06.557Z,600
2017-02-14T12:52:06.262Z,604
2017-02-14T12:53:06.681Z,608
2017-02-14T12:54:06.816Z,608
2017-02-14T12:55:06.601Z,608
2017-02-14T12:56:06.677Z,596
2017-02-14T12:57:06.679Z,600
2017-02-14T12:58:06.740Z,596
2017-02-14T12:59:06.632Z,600
2017-02-14T13:00:06.687Z,604
2017-02-14T13:01:06.687Z,600
2017-02-14T13:02:06.307Z,592
2017-02-14T13:03:06.746Z,592
2017-02-14T13:04:06.770Z,592
2017-02-14T13:05:06.736Z,596
2017-02-14T13:06:06.655Z,608
2017-02-14T13:07:06.665Z,600
2017-02-14T13:08:06.740Z,604
2017-02-14T13:09:06.670Z,592
2017-02-14T13:10:06.739Z,592
2017-02-14T13:11:06.721Z,592
2017-02-14T13:12:06.736Z,588
2017-02-14T13:13:06.867Z,592
2017-02-14T13:14:06.853Z,592
2017-02-14T13:15:06.407Z,592
2017-02-14T13:16:06.795Z,592
2017-02-14T13:17:06.907Z,592
2017-02-14T13:18:06.836Z,584
2017-02-14T13:19:06.837Z,576
2017-02-14T13:20:06.860Z,576
2017-02-14T13:21:06.847Z,580
2017-02-14T13:22:06.884Z,584
2017-02-14T13:23:06.894Z,584
2017-02-14T13:24:06.512Z,588
2017-02-14T13:25:06.936Z,588
2017-02-14T13:26:06.943Z,584
2017-02-14T13:27:06.949Z,588
2017-02-14T13:28:06.951Z,588
2017-02-14T13:29:06.999Z,592
2017-02-14T13:30:06.985Z,592
2017-02-14T13:31:07.020Z,596
2017-02-14T13:32:07.048Z,592
2017-02-14T13:33:07.056Z,584
2017-02-14T13:34:07.166Z,584
2017-02-14T13:35:06.661Z,588
2017-02-14T13:36:07.077Z,584
2017-02-14T13:37:07.112Z,576
2017-02-14T13:38:07.114Z,568
2017-02-14T13:39:07.173Z,564
2017-02-14T13:40:07.131Z,556
2017-02-14T13:41:07.153Z,556
2017-02-14T13:42:06.847Z,556
2017-02-14T13:43:07.214Z,564
2017-02-14T13:44:07.208Z,568
2017-02-14T13:45:07.246Z,568
2017-02-14T13:46:06.871Z,568
2017-02-14T13:47:07.247Z,572
2017-02-14T13:48:07.250Z,580
2017-02-14T13:49:07.262Z,580
2017-02-14T13:50:07.262Z,584
2017-02-14T13:51:07.318Z,588
2017-02-14T13:52:07.329Z,592
2017-02-14T13:53:07.347Z,588
2017-02-14T13:54:07.384Z,592
2017-02-14T13:55:07.369Z,588
2017-02-14T13:56:07.514Z,584
2017-02-14T13:57:07.513Z,584
2017-02-14T13:58:07.473Z,580
2017-02-14T13:59:07.592Z,576
2017-02-14T14:00:07.541Z,572
2017-02-14T14:01:07.573Z,572
2017-02-14T14:02:07.543Z,568
2017-02-14T14:03:07.566Z,564
2017-02-14T14:04:07.579Z,568
2017-02-14T14:05:07.189Z,556
2017-02-14T14:06:07.603Z,556
2017-02-14T14:07:07.620Z,560
2017-02-14T14:08:07.672Z,556
2017-02-14T14:09:07.664Z,560
2017-02-14T14:10:07.583Z,564
2017-02-14T14:11:07.614Z,560
2017-02-14T14:12:07.588Z,564
2017-02-14T14:13:07.637Z,568
2017-02-14T14:14:07.643Z,568